Spring Creek, Tennessee
Current Conditions -  °F | °C
As of 4:53 PM on Thursday 27 Nov 2014 (Local Time) from KMKL Reporting Station
Overcast Overcast  
Wind Chill: 30°   Ceiling: 3400
Heat Index: 36°   Visibility: 10mi
Dew Point: 28°   Wind: 7mph
Humidity: 73%   Direction: 20°NNE
Pressure: 30.48"   Gusts: NA
Location:  35.76°N, 88.67°W
Report Text: KMKL 272253Z 02006KT 10SM FEW027 OVC034 02/M02 A3048 RMK AO2 SLP325 T00221022
Loading
Personal Weather Stations






























Interactive Weather Map New forecast layout! Learn more

10-Day Weather Forecast

Advertisements
Track Severe Weather on mobile